createdAt,value
2023-03-26T00:00:16.464Z,8.8
2023-03-26T00:02:42.542Z,8.8
2023-03-26T00:05:08.653Z,8.8
2023-03-26T00:07:34.740Z,8.8
2023-03-26T00:10:00.883Z,8.8
2023-03-26T00:12:26.933Z,8.7
2023-03-26T00:14:53.032Z,8.6
2023-03-26T00:17:19.117Z,8.6
2023-03-26T00:19:45.214Z,8.5
2023-03-26T00:22:11.313Z,8.5
2023-03-26T00:24:36.435Z,8.3
2023-03-26T00:27:02.581Z,8.2
2023-03-26T00:29:28.624Z,8.1
2023-03-26T00:31:54.832Z,8.2
2023-03-26T00:34:20.817Z,8.2
2023-03-26T00:36:46.934Z,8.2
2023-03-26T00:39:13.081Z,8.2
2023-03-26T00:41:39.130Z,8.1
2023-03-26T00:44:05.256Z,8.1
2023-03-26T00:46:31.422Z,8
2023-03-26T00:48:57.460Z,8
2023-03-26T00:51:23.463Z,8
2023-03-26T00:53:49.597Z,8
2023-03-26T00:56:14.683Z,8
2023-03-26T00:58:40.790Z,8
2023-03-26T01:01:06.872Z,8
2023-03-26T01:03:32.972Z,8.1
2023-03-26T01:05:59.072Z,8.1
2023-03-26T01:08:25.148Z,8.1
2023-03-26T01:10:51.267Z,8.1
2023-03-26T01:13:17.332Z,8.1
2023-03-26T01:15:43.468Z,8.1
2023-03-26T01:18:09.562Z,8.1
2023-03-26T01:20:35.649Z,8.1
2023-03-26T01:23:01.726Z,8.1
2023-03-26T01:25:27.871Z,8.1
2023-03-26T01:27:53.080Z,8.1
2023-03-26T01:30:19.041Z,8
2023-03-26T01:32:45.160Z,8.1
2023-03-26T01:35:11.261Z,8.1
2023-03-26T01:37:37.327Z,8.2
2023-03-26T01:40:03.408Z,8.3
2023-03-26T01:42:29.511Z,8.4
2023-03-26T01:44:55.645Z,8.5
2023-03-26T01:47:21.794Z,8.6
2023-03-26T01:49:47.904Z,8.6
2023-03-26T01:52:13.929Z,8.6
2023-03-26T01:54:40.040Z,8.6
2023-03-26T01:57:06.086Z,8.6
2023-03-26T01:59:31.238Z,8.6
2023-03-26T02:01:57.289Z,8.6
2023-03-26T02:04:23.405Z,8.6
2023-03-26T02:06:49.491Z,8.5
2023-03-26T02:09:15.610Z,8.5
2023-03-26T02:11:41.692Z,8.5
2023-03-26T02:14:07.784Z,8.5
2023-03-26T02:16:33.866Z,8.5
2023-03-26T02:19:00.012Z,8.4
2023-03-26T02:21:26.051Z,8.4
2023-03-26T02:23:52.157Z,8.4
2023-03-26T02:26:18.251Z,8.3
2023-03-26T02:28:44.354Z,8.3
2023-03-26T02:31:09.470Z,8.2
2023-03-26T02:33:35.557Z,8.2
2023-03-26T02:36:01.655Z,8.1
2023-03-26T02:38:27.736Z,8.1
2023-03-26T02:40:53.851Z,8
2023-03-26T02:43:19.920Z,8.1
2023-03-26T02:45:46.019Z,8
2023-03-26T02:48:12.124Z,8
2023-03-26T02:50:38.223Z,8
2023-03-26T02:53:04.327Z,7.9
2023-03-26T02:55:30.402Z,7.9
2023-03-26T02:57:56.522Z,7.9
2023-03-26T03:00:22.612Z,7.9
2023-03-26T03:02:47.720Z,7.9
2023-03-26T03:05:13.816Z,7.9
2023-03-26T03:07:39.891Z,7.9
2023-03-26T03:10:06.051Z,7.9
2023-03-26T03:12:32.096Z,7.9
2023-03-26T03:14:58.237Z,7.8
2023-03-26T03:17:24.305Z,7.8
2023-03-26T03:19:50.403Z,7.8
2023-03-26T03:22:16.478Z,7.8
2023-03-26T03:24:42.573Z,7.7
2023-03-26T03:27:08.682Z,7.7
2023-03-26T03:29:34.777Z,7.8
2023-03-26T03:32:00.885Z,7.7
2023-03-26T03:34:25.992Z,7.7
2023-03-26T03:36:52.065Z,7.7
2023-03-26T03:39:18.154Z,7.7
2023-03-26T03:41:44.270Z,7.8
2023-03-26T03:44:10.410Z,7.8
2023-03-26T03:46:36.445Z,7.9
2023-03-26T03:49:02.613Z,7.9
2023-03-26T03:51:28.657Z,7.9
2023-03-26T03:53:54.746Z,7.9
2023-03-26T03:56:20.826Z,7.9
2023-03-26T03:58:46.937Z,8
2023-03-26T04:01:13.077Z,7.9
2023-03-26T04:03:39.126Z,7.9
2023-03-26T04:06:04.309Z,8
2023-03-26T04:08:30.330Z,8
2023-03-26T04:10:56.420Z,8
2023-03-26T04:13:22.513Z,7.9
2023-03-26T04:15:48.622Z,8
2023-03-26T04:18:14.709Z,7.9
2023-03-26T04:20:40.805Z,7.9
2023-03-26T04:23:06.897Z,7.9
2023-03-26T04:25:33.002Z,7.9
2023-03-26T04:27:59.092Z,7.9
2023-03-26T04:30:25.184Z,7.9
2023-03-26T04:32:51.288Z,7.8
2023-03-26T04:35:17.470Z,7.9
2023-03-26T04:37:42.495Z,7.8
2023-03-26T04:40:08.571Z,7.8
2023-03-26T04:42:34.694Z,7.8
2023-03-26T04:45:01.122Z,7.8
2023-03-26T04:47:26.887Z,7.8
2023-03-26T04:49:52.123Z,7.9
2023-03-26T04:52:18.079Z,7.9
2023-03-26T04:54:44.160Z,7.9
2023-03-26T04:57:10.270Z,7.8
2023-03-26T04:59:36.358Z,7.8
2023-03-26T05:02:02.469Z,7.7
2023-03-26T05:04:28.560Z,7.7
2023-03-26T05:06:54.702Z,7.7
2023-03-26T05:09:20.748Z,7.7
2023-03-26T05:11:46.903Z,7.8
2023-03-26T05:14:12.939Z,7.7
2023-03-26T05:16:39.026Z,7.7
2023-03-26T05:19:05.124Z,7.7
2023-03-26T05:21:30.243Z,7.7
2023-03-26T05:23:56.330Z,7.8
2023-03-26T05:26:22.439Z,7.7
2023-03-26T05:28:48.538Z,7.8
2023-03-26T05:31:14.628Z,7.7
2023-03-26T05:33:40.723Z,7.7
2023-03-26T05:36:06.811Z,7.8
2023-03-26T05:38:32.908Z,7.8
2023-03-26T05:40:59.012Z,7.7
2023-03-26T05:43:25.121Z,7.7
2023-03-26T05:45:51.207Z,7.8
2023-03-26T05:48:17.297Z,7.8
2023-03-26T05:50:43.392Z,7.8
2023-03-26T05:53:08.517Z,7.8
2023-03-26T05:55:34.721Z,7.8
2023-03-26T05:58:00.696Z,7.8
2023-03-26T06:00:26.795Z,7.8
2023-03-26T06:02:52.905Z,7.9
2023-03-26T06:05:18.992Z,7.9
2023-03-26T06:07:45.071Z,7.8
2023-03-26T06:10:11.172Z,7.9
2023-03-26T06:12:37.262Z,7.9
2023-03-26T06:15:03.367Z,7.9
2023-03-26T06:17:29.452Z,7.9
2023-03-26T06:19:55.626Z,7.9
2023-03-26T06:22:21.669Z,8
2023-03-26T06:24:46.758Z,8
2023-03-26T06:27:12.850Z,7.9
2023-03-26T06:29:38.948Z,7.9
2023-03-26T06:32:05.056Z,8
2023-03-26T06:34:31.135Z,8
2023-03-26T06:36:57.417Z,7.9
2023-03-26T06:39:23.344Z,7.9
2023-03-26T06:41:49.457Z,8
2023-03-26T06:44:15.563Z,8.1
2023-03-26T06:46:41.635Z,8
2023-03-26T06:49:07.704Z,8
2023-03-26T06:51:33.813Z,8.1
2023-03-26T06:53:59.961Z,8.2
2023-03-26T06:56:25.015Z,8.3
2023-03-26T06:58:51.195Z,8.3
2023-03-26T07:01:17.211Z,8.3
2023-03-26T07:03:43.416Z,8.4
2023-03-26T07:06:09.408Z,8.4
2023-03-26T07:08:35.647Z,8.5
2023-03-26T07:11:01.737Z,8.5
2023-03-26T07:13:27.834Z,8.5
2023-03-26T07:15:53.826Z,8.5
2023-03-26T07:18:19.886Z,8.5
2023-03-26T07:20:45.987Z,8.5
2023-03-26T07:23:12.212Z,8.5
2023-03-26T07:25:38.187Z,8.6
2023-03-26T07:28:03.299Z,8.7
2023-03-26T07:30:29.380Z,8.7
2023-03-26T07:32:55.478Z,8.8
2023-03-26T07:35:21.595Z,8.8
2023-03-26T07:37:47.686Z,8.8
2023-03-26T07:40:13.795Z,8.9
2023-03-26T07:42:39.896Z,8.9
2023-03-26T07:45:05.959Z,9
2023-03-26T07:47:32.064Z,9
2023-03-26T07:49:58.151Z,9.1
2023-03-26T07:52:24.231Z,9.1
2023-03-26T07:54:50.339Z,9.1
2023-03-26T07:57:16.456Z,9.2
2023-03-26T07:59:41.552Z,9.1
2023-03-26T08:02:07.639Z,9.2
2023-03-26T08:04:33.737Z,9.2
2023-03-26T08:06:59.962Z,9.3
2023-03-26T08:09:25.930Z,9.3
2023-03-26T08:11:52.026Z,9.2
2023-03-26T08:14:18.203Z,9.1
2023-03-26T08:16:44.333Z,9.2
2023-03-26T08:19:10.300Z,9.3
2023-03-26T08:21:36.432Z,9.3
2023-03-26T08:24:02.525Z,9.3
2023-03-26T08:26:28.589Z,9.3
2023-03-26T08:28:54.692Z,9.3
2023-03-26T08:31:19.874Z,9.3
2023-03-26T08:33:45.905Z,9.2
2023-03-26T08:36:12.019Z,9.2
2023-03-26T08:38:38.159Z,9.2
2023-03-26T08:41:04.187Z,9.2
2023-03-26T08:43:30.356Z,9.2
2023-03-26T08:45:56.391Z,9.3
2023-03-26T08:48:22.482Z,9.3
2023-03-26T08:50:48.563Z,9.2
2023-03-26T08:53:14.671Z,9.2
2023-03-26T08:55:40.744Z,9.2
2023-03-26T08:58:06.857Z,9.2
2023-03-26T09:00:32.953Z,9.2
2023-03-26T09:02:58.087Z,9.3
2023-03-26T09:05:24.255Z,9.5
2023-03-26T09:07:50.259Z,9.6
2023-03-26T09:10:16.406Z,9.7
2023-03-26T09:12:42.603Z,9.8
2023-03-26T09:15:08.612Z,9.9
2023-03-26T09:17:34.676Z,10
2023-03-26T09:20:00.759Z,10.2
2023-03-26T09:22:26.927Z,10.3
2023-03-26T09:24:52.914Z,10.3
2023-03-26T09:27:19.027Z,10.6
2023-03-26T09:29:45.112Z,10.8
2023-03-26T09:32:11.236Z,10.8
2023-03-26T09:34:36.327Z,10.9
2023-03-26T09:37:02.405Z,11.1
2023-03-26T09:39:28.522Z,11
2023-03-26T09:41:54.605Z,10.9
2023-03-26T09:44:20.737Z,11
2023-03-26T09:46:46.795Z,10.9
2023-03-26T09:49:12.887Z,10.9
2023-03-26T09:51:39.097Z,11.1
2023-03-26T09:54:05.099Z,11.1
2023-03-26T09:56:31.248Z,11.4
2023-03-26T09:58:57.272Z,11.6
2023-03-26T10:01:23.370Z,11.7
2023-03-26T10:03:49.894Z,11.8
2023-03-26T10:06:14.650Z,12.1
2023-03-26T10:08:40.833Z,12.3
2023-03-26T10:11:06.946Z,12.4
2023-03-26T10:13:32.923Z,12.3
2023-03-26T10:18:25.046Z,12.7
2023-03-26T10:20:51.132Z,12.7
2023-03-26T10:23:17.238Z,12.5
2023-03-26T10:25:43.441Z,12.7
2023-03-26T10:28:09.437Z,13
2023-03-26T10:30:35.549Z,13.1
2023-03-26T10:33:01.610Z,13.1
2023-03-26T10:35:27.706Z,12.9
2023-03-26T10:37:52.826Z,12.8
2023-03-26T10:40:18.948Z,12.6
2023-03-26T10:42:45.035Z,12.5
2023-03-26T10:45:11.114Z,12.5
2023-03-26T10:47:37.214Z,12.5
2023-03-26T10:50:03.301Z,12.4
2023-03-26T10:52:29.449Z,12.3
2023-03-26T10:54:55.496Z,12.3
2023-03-26T10:57:21.584Z,12.2
2023-03-26T10:59:47.696Z,12.3
2023-03-26T11:02:13.790Z,12.4
2023-03-26T11:04:39.878Z,12.8
2023-03-26T11:07:05.996Z,13
2023-03-26T11:09:31.079Z,13.2
2023-03-26T11:11:57.180Z,13.4
2023-03-26T11:14:23.271Z,13.6
2023-03-26T11:16:49.432Z,13.7
2023-03-26T11:19:15.481Z,13.9
2023-03-26T11:21:41.558Z,14
2023-03-26T11:24:07.762Z,14
2023-03-26T11:26:33.749Z,13.9
2023-03-26T11:28:59.943Z,14
2023-03-26T11:31:26.183Z,14.3
2023-03-26T11:33:52.070Z,14.4
2023-03-26T11:36:18.159Z,14.7
2023-03-26T11:38:44.213Z,14.8
2023-03-26T11:41:09.371Z,15
2023-03-26T11:43:35.439Z,15.1
2023-03-26T11:46:01.544Z,15.1
2023-03-26T11:48:27.633Z,15.2
2023-03-26T11:50:53.722Z,14.9
2023-03-26T11:53:19.824Z,15
2023-03-26T11:55:45.910Z,14.9
2023-03-26T11:58:11.990Z,15.2
2023-03-26T12:00:38.104Z,15.4
2023-03-26T12:03:04.186Z,15.4
2023-03-26T12:05:30.340Z,15.7
2023-03-26T12:07:56.391Z,15.7
2023-03-26T12:10:22.486Z,15.3
2023-03-26T12:12:47.590Z,15.2
2023-03-26T12:15:13.691Z,15.3
2023-03-26T12:17:39.787Z,15.3
2023-03-26T12:20:05.907Z,15.3
2023-03-26T12:22:31.959Z,15.2
2023-03-26T12:24:58.069Z,15.1
2023-03-26T12:27:24.178Z,15.1
2023-03-26T12:29:50.329Z,15
2023-03-26T12:32:16.407Z,14.9
2023-03-26T12:34:42.458Z,14.8
2023-03-26T12:37:08.672Z,14.5
2023-03-26T12:39:34.637Z,13.7
2023-03-26T12:42:00.754Z,13
2023-03-26T12:44:25.862Z,12.7
2023-03-26T12:46:51.944Z,12.7
2023-03-26T12:49:18.033Z,12.8
2023-03-26T12:51:44.163Z,12.8
2023-03-26T12:54:10.227Z,12.8
2023-03-26T12:56:36.317Z,12.8
2023-03-26T12:59:01.619Z,12.8
2023-03-26T13:01:27.675Z,12.9
2023-03-26T13:03:53.632Z,13
2023-03-26T13:06:19.743Z,13
2023-03-26T13:08:45.825Z,13
2023-03-26T13:11:11.906Z,13.1
2023-03-26T13:13:38.050Z,13.3
2023-03-26T13:16:04.105Z,13.3
2023-03-26T13:18:30.253Z,13.5
2023-03-26T13:20:56.443Z,13.6
2023-03-26T13:23:22.481Z,13.5
2023-03-26T13:25:48.554Z,13.5
2023-03-26T13:28:14.595Z,13.4
2023-03-26T13:30:40.723Z,13.5
2023-03-26T13:33:05.877Z,13.7
2023-03-26T13:35:32.113Z,14.1
2023-03-26T13:37:58.068Z,14.6
2023-03-26T13:40:24.127Z,14.6
2023-03-26T13:42:50.170Z,14.4
2023-03-26T13:45:16.297Z,14.4
2023-03-26T13:47:42.402Z,14.4
2023-03-26T13:50:08.497Z,14.4
2023-03-26T13:52:34.556Z,14.4
2023-03-26T13:55:00.649Z,14.3
2023-03-26T13:57:26.748Z,14.2
2023-03-26T13:59:52.842Z,14.1
2023-03-26T14:02:18.941Z,14
2023-03-26T14:04:44.055Z,14.1
2023-03-26T14:07:10.141Z,14.2
2023-03-26T14:09:36.230Z,14.1
2023-03-26T14:12:02.334Z,14.1
2023-03-26T14:14:28.522Z,14.1
2023-03-26T14:16:54.607Z,14.1
2023-03-26T14:19:20.695Z,14.3
2023-03-26T14:21:46.760Z,14.4
2023-03-26T14:24:12.833Z,14.3
2023-03-26T14:26:38.953Z,14.4
2023-03-26T14:29:05.000Z,14.4
2023-03-26T14:31:31.100Z,14.4
2023-03-26T14:33:57.182Z,14.2
2023-03-26T14:36:22.311Z,14
2023-03-26T14:38:48.406Z,14
2023-03-26T14:41:14.487Z,13.9
2023-03-26T14:43:40.609Z,13.8
2023-03-26T14:46:06.691Z,13.5
2023-03-26T14:48:32.840Z,13.3
2023-03-26T14:50:58.880Z,13
2023-03-26T14:53:24.982Z,12.7
2023-03-26T14:55:51.067Z,12.5
2023-03-26T14:58:17.171Z,12.1
2023-03-26T15:00:43.269Z,11.6
2023-03-26T15:03:09.386Z,11.2
2023-03-26T15:05:35.481Z,11
2023-03-26T15:08:00.567Z,10.7
2023-03-26T15:10:26.669Z,10.6
2023-03-26T15:12:52.777Z,10.5
2023-03-26T15:15:18.859Z,10.3
2023-03-26T15:17:44.951Z,10.3
2023-03-26T15:20:11.046Z,10.3
2023-03-26T15:22:37.146Z,10.2
2023-03-26T15:25:03.240Z,10.2
2023-03-26T15:27:29.342Z,10.2
2023-03-26T15:29:55.417Z,10.1
2023-03-26T15:32:21.582Z,10.2
2023-03-26T15:34:47.628Z,10.1
2023-03-26T15:37:13.745Z,10.2
2023-03-26T15:39:38.817Z,10.3
2023-03-26T15:42:04.908Z,10.3
2023-03-26T15:44:31.028Z,10.3
2023-03-26T15:46:57.110Z,10.4
2023-03-26T15:49:23.202Z,10.4
2023-03-26T15:51:49.289Z,10.4
2023-03-26T15:54:15.397Z,10.3
2023-03-26T15:56:41.506Z,10.3
2023-03-26T15:59:07.587Z,10.3
2023-03-26T16:01:33.685Z,10.2
2023-03-26T16:03:59.814Z,10
2023-03-26T16:06:25.869Z,9.8
2023-03-26T16:08:51.959Z,9.8
2023-03-26T16:11:17.082Z,9.8
2023-03-26T16:13:43.236Z,9.7
2023-03-26T16:16:09.287Z,9.6
2023-03-26T16:18:35.365Z,9.5
2023-03-26T16:21:01.559Z,9.5
2023-03-26T16:23:27.586Z,9.5
2023-03-26T16:25:53.676Z,9.5
2023-03-26T16:28:19.747Z,9.5
2023-03-26T16:30:45.842Z,9.4
2023-03-26T16:33:11.939Z,9.4
2023-03-26T16:35:38.031Z,9.4
2023-03-26T16:38:04.127Z,9.4
2023-03-26T16:40:30.261Z,9.4
2023-03-26T16:42:55.356Z,9.4
2023-03-26T16:45:21.440Z,9.5
2023-03-26T16:47:47.535Z,9.4
2023-03-26T16:50:13.626Z,9.4
2023-03-26T16:52:39.816Z,9.3
2023-03-26T16:55:05.828Z,9.3
2023-03-26T16:57:31.924Z,9.2
2023-03-26T16:59:58.006Z,9.2
2023-03-26T17:02:24.110Z,9.2
2023-03-26T17:04:50.206Z,9.1
2023-03-26T17:07:16.303Z,9.1
2023-03-26T17:09:42.400Z,9.1
2023-03-26T17:12:08.489Z,9.1
2023-03-26T17:14:33.603Z,9.1
2023-03-26T17:16:59.695Z,9
2023-03-26T17:19:25.807Z,9.1
2023-03-26T17:21:51.862Z,9
2023-03-26T17:24:17.983Z,9
2023-03-26T17:26:44.084Z,9
2023-03-26T17:29:10.181Z,9
2023-03-26T17:31:36.264Z,8.9
2023-03-26T17:34:02.369Z,8.9
2023-03-26T17:36:28.458Z,8.9
2023-03-26T17:38:54.543Z,8.8
2023-03-26T17:41:20.660Z,8.8
2023-03-26T17:43:46.744Z,8.8
2023-03-26T17:46:11.861Z,8.8
2023-03-26T17:48:37.979Z,8.7
2023-03-26T17:51:04.059Z,8.7
2023-03-26T17:53:30.137Z,8.7
2023-03-26T17:55:56.290Z,8.7
2023-03-26T17:58:22.336Z,8.7
2023-03-26T18:00:48.427Z,8.7
2023-03-26T18:03:14.535Z,8.7
2023-03-26T18:05:40.623Z,8.7
2023-03-26T18:08:06.726Z,8.8
2023-03-26T18:10:32.829Z,8.7
2023-03-26T18:12:58.915Z,8.7
2023-03-26T18:15:25.011Z,8.7
2023-03-26T18:17:50.128Z,8.7
2023-03-26T18:20:16.232Z,8.8
2023-03-26T18:22:42.331Z,8.7
2023-03-26T18:25:08.448Z,8.8
2023-03-26T18:27:34.510Z,8.7
2023-03-26T18:30:00.617Z,8.7
2023-03-26T18:32:26.719Z,8.6
2023-03-26T18:34:52.783Z,8.6
2023-03-26T18:37:18.886Z,8.6
2023-03-26T18:39:44.973Z,8.7
2023-03-26T18:42:11.112Z,8.7
2023-03-26T18:44:37.183Z,8.7
2023-03-26T18:47:03.374Z,8.7
2023-03-26T18:49:28.409Z,8.7
2023-03-26T18:51:54.484Z,8.7
2023-03-26T18:54:20.558Z,8.7
2023-03-26T18:56:46.667Z,8.7
2023-03-26T18:59:12.791Z,8.7
2023-03-26T19:01:38.862Z,8.7
2023-03-26T19:04:05.034Z,8.7
2023-03-26T19:06:31.051Z,8.7
2023-03-26T19:08:57.146Z,8.7
2023-03-26T19:11:23.252Z,8.6
2023-03-26T19:13:49.348Z,8.6
2023-03-26T19:16:15.414Z,8.6
2023-03-26T19:18:41.564Z,8.6
2023-03-26T19:21:06.652Z,8.6
2023-03-26T19:23:32.732Z,8.6
2023-03-26T19:25:58.862Z,8.6
2023-03-26T19:28:24.971Z,8.6
2023-03-26T19:30:51.078Z,8.6
2023-03-26T19:33:17.117Z,8.6
2023-03-26T19:35:43.220Z,8.5
2023-03-26T19:38:09.427Z,8.5
2023-03-26T19:40:35.487Z,8.5
2023-03-26T19:43:01.682Z,8.5
2023-03-26T19:45:27.759Z,8.5
2023-03-26T19:47:53.872Z,8.5
2023-03-26T19:50:19.940Z,8.5
2023-03-26T19:52:44.954Z,8.5
2023-03-26T19:55:11.179Z,8.5
2023-03-26T19:57:37.222Z,8.5
2023-03-26T20:00:03.253Z,8.5
2023-03-26T20:02:29.539Z,8.5
2023-03-26T20:04:55.528Z,8.4
2023-03-26T20:07:21.478Z,8.4
2023-03-26T20:09:47.770Z,8.3
2023-03-26T20:12:13.824Z,8.3
2023-03-26T20:14:39.937Z,8.3
2023-03-26T20:17:06.032Z,8.3
2023-03-26T20:19:32.169Z,8.3
2023-03-26T20:21:58.207Z,8.3
2023-03-26T20:24:23.339Z,8.3
2023-03-26T20:26:49.542Z,8.3
2023-03-26T20:29:15.566Z,8.3
2023-03-26T20:31:41.600Z,8.3
2023-03-26T20:34:07.699Z,8.3
2023-03-26T20:36:33.638Z,8.3
2023-03-26T20:38:59.892Z,8.3
2023-03-26T20:41:25.998Z,8.3
2023-03-26T20:43:51.924Z,8.3
2023-03-26T20:46:18.021Z,8.2
2023-03-26T20:48:44.122Z,8.2
2023-03-26T20:51:10.349Z,8.1
2023-03-26T20:53:36.461Z,8.1
2023-03-26T20:56:01.535Z,8
2023-03-26T20:58:27.625Z,8
2023-03-26T21:00:53.593Z,7.9
2023-03-26T21:03:19.702Z,7.9
2023-03-26T21:08:11.887Z,7.8
2023-03-26T21:10:37.020Z,7.8
2023-03-26T21:13:03.103Z,7.9
2023-03-26T21:15:29.296Z,7.9
2023-03-26T21:17:55.336Z,7.9
2023-03-26T21:20:21.382Z,7.9
2023-03-26T21:22:47.559Z,7.9
2023-03-26T21:25:13.563Z,7.9
2023-03-26T21:27:39.669Z,7.9
2023-03-26T21:30:05.774Z,7.9
2023-03-26T21:32:31.859Z,7.9
2023-03-26T21:34:57.967Z,7.9
2023-03-26T21:37:24.051Z,7.9
2023-03-26T21:39:50.159Z,8
2023-03-26T21:42:15.265Z,7.9
2023-03-26T21:44:41.352Z,8
2023-03-26T21:47:07.455Z,8
2023-03-26T21:49:33.581Z,8
2023-03-26T21:51:59.635Z,8
2023-03-26T21:54:25.734Z,7.9
2023-03-26T21:56:51.961Z,7.9
2023-03-26T21:59:18.032Z,7.9
2023-03-26T22:01:44.038Z,7.8
2023-03-26T22:04:10.125Z,7.7
2023-03-26T22:06:36.216Z,7.7
2023-03-26T22:09:02.341Z,7.7
2023-03-26T22:11:28.431Z,7.6
2023-03-26T22:13:53.525Z,7.6
2023-03-26T22:16:19.617Z,7.6
2023-03-26T22:18:45.767Z,7.5
2023-03-26T22:21:11.820Z,7.4
2023-03-26T22:23:37.933Z,7.4
2023-03-26T22:26:04.046Z,7.4
2023-03-26T22:28:30.135Z,7.3
2023-03-26T22:30:56.211Z,7.3
2023-03-26T22:33:22.273Z,7.3
2023-03-26T22:35:48.379Z,7.3
2023-03-26T22:38:14.529Z,7.3
2023-03-26T22:40:40.559Z,7.3
2023-03-26T22:43:06.672Z,7.3
2023-03-26T22:45:31.828Z,7.3
2023-03-26T22:47:57.912Z,7.2
2023-03-26T22:50:23.969Z,7.3
2023-03-26T22:52:50.070Z,7.3
2023-03-26T22:55:16.191Z,7.3
2023-03-26T22:57:42.261Z,7.2
2023-03-26T23:00:08.336Z,7.3
2023-03-26T23:02:34.443Z,7.3
2023-03-26T23:05:00.536Z,7.3
2023-03-26T23:07:26.631Z,7.3
2023-03-26T23:09:52.719Z,7.3
2023-03-26T23:12:18.832Z,7.3
2023-03-26T23:14:44.952Z,7.3
2023-03-26T23:17:10.033Z,7.4
2023-03-26T23:19:36.139Z,7.4
2023-03-26T23:22:02.249Z,7.4
2023-03-26T23:24:28.384Z,7.4
2023-03-26T23:26:54.416Z,7.4
2023-03-26T23:29:20.514Z,7.4
2023-03-26T23:31:46.610Z,7.4
2023-03-26T23:34:12.694Z,7.4
2023-03-26T23:36:38.811Z,7.4
2023-03-26T23:39:04.918Z,7.3
2023-03-26T23:41:30.987Z,7.3
2023-03-26T23:43:57.111Z,7.3
2023-03-26T23:46:23.189Z,7.3
2023-03-26T23:48:48.294Z,7.3
2023-03-26T23:51:14.389Z,7.3
2023-03-26T23:53:40.484Z,7.3
2023-03-26T23:56:06.561Z,7.2
2023-03-26T23:58:47.858Z,7.2
